Tropical Cyclones
[Index]
Main Index Home Page Stock Weather Photos Extreme Storms Discussion Storm News and Storm Chasing Reports Tropical Cyclones / Hurricanes / Typhoons Weather Data and Links Wild Fires / Bushfires Weather Observation Techniques Weather Picture Catalogue Tornado Pictures and Reports Stock Video Footage and DVDs for sale
Season 1966-1967 Tropical Cyclone GLENDA Track Map
Season 1966-1967 Summaries: [BoM-AU] [JTWC-AU] [JTWC-SIO] [JTWC-SPAC] [JTWC-SH]
<<- Previous TC | BoM 1966-1967 Season | Next TC ->>

click for intensity scale information  Lat/long Grid: Show Hide

 Date Labels: Show Hide

Bureau of Meteorology Tropical Cyclone Data

Name: GLENDA
Number: 421 / 196667_13

26 Mar 1967 05:00 UTC to 05 Apr 1967 11:00 UTC

    date/time    lat    long    hPa   cat  kts
1967-03-26 05   12.5   155.3   1000                     
1967-03-26 11   12.2   155.7   1000                     
1967-03-26 23   11.4   156.1    998                     
1967-03-27 11   10.7   157.0    997                     
1967-03-27 23   10.3   158.3    994    1                
1967-03-28 11   10.8   159.8    992    1                
1967-03-28 14   11.0   160.2    990    1                
1967-03-28 17   11.3   160.3    990    1                
1967-03-28 23   12.1   160.8    990    1                
1967-03-29 11   13.9   160.6    988    1                
1967-03-29 23   16.0   160.0    988    1                
1967-03-30 11   18.2   159.0    986    1                
1967-03-30 23   20.0   158.4    982    2                
1967-03-31 11   20.7   158.4    984    2                
1967-03-31 23   21.5   158.6    986    1                
1967-04-01 05   21.8   158.7    986    1                
1967-04-01 11   22.2   158.9    986    1                
1967-04-01 23   22.8   159.3    988    1                
1967-04-02 11   23.3   159.7    988    1                
1967-04-02 23   24.0   160.0    988    1                
1967-04-03 11   25.1   159.9    988    1                
1967-04-03 23   26.3   159.1    988    1                
1967-04-04 11   27.7   158.2    988    1                
1967-04-04 23   29.6   158.5    988    1                
1967-04-05 11   31.7   159.3    990    1                
Winds are 10-min average.

Tropical cyclone tracks developed by Michael Bath using data from the Bureau of Meteorology and Google Maps.


[Australian Severe Weather index] [Copyright Notice] [Email Contacts] [Search This Site] [Privacy Policy]
Document: tropical_cyclone_glenda.htm Updated: 30 May 2013